Itambe, Brazil
Current Conditions -  °F | °C
As of 5:00 PM on Saturday 25 Oct 2014 (Local Time) from SBMG Reporting Station
Rain Showers Rain Showers  
Wind Chill: 79°   Ceiling: Unl
Heat Index: 81°   Visibility: 6mi
Dew Point: 64°   Wind: 15mph
Humidity: 61%   Direction: 340°NNW
Pressure: 29.91"   Gusts: NA
Location:  23.66°S, 51.99°W
Report Text: SBMG 251900Z 34013KT 9999 VCSH SCT035 FEW050TCU 26/18 Q1013
Loading
Personal Weather Stations






























Interactive Weather Map
Tropical Storm Tracking
New forecast layout! Learn more

10-Day Weather Forecast

Advertisements
Track Severe Weather on mobile